หน้าหลัก
METAR-TAF:

METAR-TAF

ท่าอากาศยาน :

Yap, ไมโครนีเซีย

ละติจูด: 09-29N, ลองจิจูด: 138-05E, ความสูง: 28 ม.

การสังเกตสภาพอากาศปัจจุบัน

รายงานได้ทำขึ้นเมื่อ 38 นาทีที่แล้ว ณ เวลา 07:54 UTC
ลม 8 นอตจากตะวันออก
อุณหภูมิ 27°C
ความชื้น 94%
ความกดอากาศ 1009 hPa
ทัศนวิสัย: 16.1 กม.
มีเมฆกระจายเป็นบางส่วนที่ความสูง 1600 ฟุต, คิวมูโลนิมบัส.
มีเมฆเป็นส่วนมากเว้นเป็นระยะที่ความสูง 13000 ฟุต
มีเมฆมาก มืดครึ้มที่ความสูง 30000 ฟุต
ฝนโปรยปรายเล็กน้อย

METAR: PTYA 250754Z 08008KT 10SM -SHRA SCT016CB BKN130 OVC300 27/26 A2979 RMK SHRAB48 CB SW AND NW-NE SLP088 T02680255

เวลา: 18:32 (08:32 UTC)

การพยากรณ์

รายงานได้ทำขึ้นเมื่อ 3 ชั่วโมงและ 12 นาทีที่แล้ว ณ เวลา 05:20 UTC
การพยากรณ์มีผลตั้งแต่วันที่ 25 ณ เวลา 06 UTC จนถึงวันที่ 26 ณ เวลา 06 UTC
ลม 12 นอตจากตะวันออก/ตะวันออกเฉียงเหนือ
ทัศนวิสัย: 10 กม.
มีเมฆกระจายเป็นบางส่วนที่ความสูง 1600 ฟุต
มีเมฆเป็นส่วนมากเว้นเป็นระยะที่ความสูง 13000 ฟุต
การโปรยปรายในบริเวณใกล้เคียง,

TAF: PTYA 250520Z 2506/2606 06012KT P6SM VCSH SCT016 BKN130

สังเกตการณ์สภาพอากาศและพยากรณ์อากาศของสนามบินมากกว่า 4000 แห่ง (รายงาน METAR และ TAF).

สถานีที่ดูได้จะแสดงไว้ด้วยจุดสีเหลืองและสีแดงบนแผนที่.

เลื่อนเมาส์ไปเหนือจุดเพื่อดูชื่อสถานี.

แล้วคลิกเพื่อดูสังเกตการณ์และการพยากรณ์สภาพอากาศ.

ในการเปลี่ยนแผนที่: คลิกที่ปุ่มสีเขียวที่มีกากบาทสีดำเพื่อซูมเข้า; ที่ปุ่มสีเขียวที่มีขีดเพื่อซูมออก; หรือที่ลูกศรสีเขียวเพื่อไปยังแผนที่ที่อยู่ติดกัน.


METAR-TAF: